sensor_id;sensor_type;location;lat;lon;timestamp;pressure;altitude;pressure_sealevel;temperature;humidity
41947;BME280;27638;42.184;24.848;2023-05-29T00:01:58;99498.00;;;18.16;100.00
41947;BME280;27638;42.184;24.848;2023-05-29T00:04:23;99494.88;;;18.19;100.00
41947;BME280;27638;42.184;24.848;2023-05-29T00:06:49;99500.84;;;18.22;100.00
41947;BME280;27638;42.184;24.848;2023-05-29T00:09:15;99493.25;;;18.18;100.00
41947;BME280;27638;42.184;24.848;2023-05-29T00:11:41;99494.72;;;18.14;100.00
41947;BME280;27638;42.184;24.848;2023-05-29T00:14:06;99490.56;;;18.18;100.00
41947;BME280;27638;42.184;24.848;2023-05-29T00:16:32;99495.31;;;18.16;100.00
41947;BME280;27638;42.184;24.848;2023-05-29T00:18:57;99496.16;;;18.17;100.00
41947;BME280;27638;42.184;24.848;2023-05-29T00:21:23;99494.50;;;18.16;100.00
41947;BME280;27638;42.184;24.848;2023-05-29T00:23:48;99484.44;;;18.11;100.00
41947;BME280;27638;42.184;24.848;2023-05-29T00:26:13;99482.63;;;18.05;100.00
41947;BME280;27638;42.184;24.848;2023-05-29T00:28:42;99486.34;;;18.04;100.00
41947;BME280;27638;42.184;24.848;2023-05-29T00:31:07;99487.16;;;18.05;100.00
41947;BME280;27638;42.184;24.848;2023-05-29T00:33:32;99495.81;;;18.07;100.00
41947;BME280;27638;42.184;24.848;2023-05-29T00:35:58;99490.81;;;18.10;100.00
41947;BME280;27638;42.184;24.848;2023-05-29T00:38:23;99486.47;;;18.16;100.00
41947;BME280;27638;42.184;24.848;2023-05-29T00:40:49;99496.56;;;18.14;100.00
41947;BME280;27638;42.184;24.848;2023-05-29T00:43:14;99495.09;;;18.18;100.00
41947;BME280;27638;42.184;24.848;2023-05-29T00:45:40;99498.00;;;18.16;100.00
41947;BME280;27638;42.184;24.848;2023-05-29T00:48:06;99500.41;;;18.25;100.00
41947;BME280;27638;42.184;24.848;2023-05-29T00:50:32;99493.19;;;18.25;100.00
41947;BME280;27638;42.184;24.848;2023-05-29T00:53:01;99495.66;;;18.27;100.00
41947;BME280;27638;42.184;24.848;2023-05-29T00:55:28;99498.72;;;18.30;100.00
41947;BME280;27638;42.184;24.848;2023-05-29T00:57:54;99494.19;;;18.31;100.00
41947;BME280;27638;42.184;24.848;2023-05-29T01:00:20;99494.06;;;18.19;100.00
41947;BME280;27638;42.184;24.848;2023-05-29T01:02:46;99489.25;;;18.28;100.00
41947;BME280;27638;42.184;24.848;2023-05-29T01:05:13;99493.78;;;18.27;100.00
41947;BME280;27638;42.184;24.848;2023-05-29T01:07:41;99496.03;;;18.30;100.00
41947;BME280;27638;42.184;24.848;2023-05-29T01:10:08;99490.72;;;18.24;100.00
41947;BME280;27638;42.184;24.848;2023-05-29T01:12:55;99486.19;;;18.24;100.00
41947;BME280;27638;42.184;24.848;2023-05-29T01:20:52;99480.94;;;18.36;100.00
41947;BME280;27638;42.184;24.848;2023-05-29T01:26:49;99478.75;;;18.26;100.00
41947;BME280;27638;42.184;24.848;2023-05-29T01:29:19;99478.69;;;18.08;100.00
41947;BME280;27638;42.184;24.848;2023-05-29T01:31:48;99483.44;;;18.06;100.00
41947;BME280;27638;42.184;24.848;2023-05-29T01:34:14;99479.16;;;17.98;100.00
41947;BME280;27638;42.184;24.848;2023-05-29T01:36:40;99483.50;;;17.99;100.00
41947;BME280;27638;42.184;24.848;2023-05-29T01:39:06;99481.75;;;17.80;100.00
41947;BME280;27638;42.184;24.848;2023-05-29T01:41:33;99479.22;;;17.92;100.00
41947;BME280;27638;42.184;24.848;2023-05-29T01:44:02;99483.09;;;17.96;100.00
41947;BME280;27638;42.184;24.848;2023-05-29T01:46:28;99478.13;;;17.99;100.00
41947;BME280;27638;42.184;24.848;2023-05-29T01:48:54;99478.47;;;18.09;100.00
41947;BME280;27638;42.184;24.848;2023-05-29T01:51:20;99486.28;;;18.11;100.00
41947;BME280;27638;42.184;24.848;2023-05-29T01:53:46;99477.16;;;18.18;100.00
41947;BME280;27638;42.184;24.848;2023-05-29T01:56:12;99485.16;;;18.25;100.00
41947;BME280;27638;42.184;24.848;2023-05-29T01:58:38;99489.88;;;18.30;100.00
41947;BME280;27638;42.184;24.848;2023-05-29T02:01:06;99487.13;;;18.36;100.00
41947;BME280;27638;42.184;24.848;2023-05-29T02:03:32;99483.84;;;18.34;100.00
41947;BME280;27638;42.184;24.848;2023-05-29T02:05:58;99485.09;;;18.32;100.00
41947;BME280;27638;42.184;24.848;2023-05-29T02:08:24;99482.69;;;18.24;100.00
41947;BME280;27638;42.184;24.848;2023-05-29T02:10:49;99488.16;;;18.35;100.00
41947;BME280;27638;42.184;24.848;2023-05-29T02:13:15;99468.09;;;18.19;100.00
41947;BME280;27638;42.184;24.848;2023-05-29T02:15:41;99490.69;;;18.30;100.00
41947;BME280;27638;42.184;24.848;2023-05-29T02:18:09;99461.53;;;18.15;100.00
41947;BME280;27638;42.184;24.848;2023-05-29T02:20:37;99480.63;;;18.26;100.00
41947;BME280;27638;42.184;24.848;2023-05-29T02:23:02;99480.56;;;18.32;100.00
41947;BME280;27638;42.184;24.848;2023-05-29T02:25:28;99487.13;;;18.36;100.00
41947;BME280;27638;42.184;24.848;2023-05-29T02:27:53;99493.75;;;18.34;100.00
41947;BME280;27638;42.184;24.848;2023-05-29T02:30:19;99484.66;;;18.35;100.00
41947;BME280;27638;42.184;24.848;2023-05-29T02:32:44;99488.56;;;18.39;100.00
41947;BME280;27638;42.184;24.848;2023-05-29T02:35:10;99480.94;;;18.36;100.00
41947;BME280;27638;42.184;24.848;2023-05-29T02:37:38;99495.59;;;18.33;100.00
41947;BME280;27638;42.184;24.848;2023-05-29T02:40:04;99491.50;;;18.31;100.00
41947;BME280;27638;42.184;24.848;2023-05-29T02:42:31;99488.28;;;18.22;100.00
41947;BME280;27638;42.184;24.848;2023-05-29T02:44:57;99492.69;;;18.10;100.00
41947;BME280;27638;42.184;24.848;2023-05-29T02:47:22;99488.19;;;18.04;100.00
41947;BME280;27638;42.184;24.848;2023-05-29T02:49:47;99492.78;;;17.97;100.00
41947;BME280;27638;42.184;24.848;2023-05-29T02:52:13;99485.78;;;17.96;100.00
41947;BME280;27638;42.184;24.848;2023-05-29T02:54:38;99488.44;;;17.96;100.00
41947;BME280;27638;42.184;24.848;2023-05-29T02:57:04;99489.28;;;17.96;100.00
41947;BME280;27638;42.184;24.848;2023-05-29T02:59:30;99491.53;;;17.99;100.00
41947;BME280;27638;42.184;24.848;2023-05-29T03:01:57;99499.50;;;18.06;100.00
41947;BME280;27638;42.184;24.848;2023-05-29T03:04:22;99500.13;;;18.08;100.00
41947;BME280;27638;42.184;24.848;2023-05-29T03:06:48;99504.22;;;18.10;100.00
41947;BME280;27638;42.184;24.848;2023-05-29T03:09:14;99500.72;;;18.10;100.00
41947;BME280;27638;42.184;24.848;2023-05-29T03:11:41;99496.41;;;18.09;100.00
41947;BME280;27638;42.184;24.848;2023-05-29T03:14:06;99500.13;;;18.08;100.00
41947;BME280;27638;42.184;24.848;2023-05-29T03:16:32;99494.19;;;17.99;100.00
41947;BME280;27638;42.184;24.848;2023-05-29T03:18:57;99491.13;;;17.96;100.00
41947;BME280;27638;42.184;24.848;2023-05-29T03:21:22;99498.97;;;17.97;100.00
41947;BME280;27638;42.184;24.848;2023-05-29T03:23:48;99501.81;;;18.02;100.00
41947;BME280;27638;42.184;24.848;2023-05-29T03:26:14;99498.97;;;17.97;100.00
41947;BME280;27638;42.184;24.848;2023-05-29T03:28:39;99510.44;;;18.04;100.00
41947;BME280;27638;42.184;24.848;2023-05-29T03:31:05;99507.34;;;18.07;100.00
41947;BME280;27638;42.184;24.848;2023-05-29T03:33:30;99515.34;;;18.14;100.00
41947;BME280;27638;42.184;24.848;2023-05-29T03:35:56;99515.34;;;18.14;100.00
41947;BME280;27638;42.184;24.848;2023-05-29T03:38:22;99516.53;;;18.18;100.00
41947;BME280;27638;42.184;24.848;2023-05-29T03:40:47;99520.00;;;18.25;100.00
41947;BME280;27638;42.184;24.848;2023-05-29T03:43:12;99523.06;;;18.29;100.00
41947;BME280;27638;42.184;24.848;2023-05-29T03:45:38;99529.25;;;18.29;100.00
41947;BME280;27638;42.184;24.848;2023-05-29T03:48:03;99532.13;;;18.28;100.00
41947;BME280;27638;42.184;24.848;2023-05-29T03:50:29;99532.41;;;18.19;100.00
41947;BME280;27638;42.184;24.848;2023-05-29T03:52:54;99529.34;;;18.16;100.00
41947;BME280;27638;42.184;24.848;2023-05-29T03:55:20;99524.59;;;18.18;100.00
41947;BME280;27638;42.184;24.848;2023-05-29T03:57:45;99524.31;;;18.26;100.00
41947;BME280;27638;42.184;24.848;2023-05-29T04:00:11;99528.84;;;18.26;100.00
41947;BME280;27638;42.184;24.848;2023-05-29T04:02:40;99529.06;;;18.24;100.00
41947;BME280;27638;42.184;24.848;2023-05-29T04:05:06;99538.16;;;18.23;100.00
41947;BME280;27638;42.184;24.848;2023-05-29T04:07:33;99530.53;;;18.20;100.00
41947;BME280;27638;42.184;24.848;2023-05-29T04:09:58;99533.41;;;18.25;100.00
41947;BME280;27638;42.184;24.848;2023-05-29T04:12:24;99539.53;;;18.32;100.00
41947;BME280;27638;42.184;24.848;2023-05-29T04:14:49;99546.06;;;18.43;100.00
41947;BME280;27638;42.184;24.848;2023-05-29T04:17:15;99547.34;;;18.34;100.00
41947;BME280;27638;42.184;24.848;2023-05-29T04:19:40;99551.47;;;18.36;100.00
41947;BME280;27638;42.184;24.848;2023-05-29T04:22:06;99554.91;;;18.43;100.00
41947;BME280;27638;42.184;24.848;2023-05-29T04:24:32;99561.91;;;18.44;100.00
41947;BME280;27638;42.184;24.848;2023-05-29T04:26:58;99566.56;;;18.56;100.00
41947;BME280;27638;42.184;24.848;2023-05-29T04:29:26;99560.38;;;18.62;100.00
41947;BME280;27638;42.184;24.848;2023-05-29T04:31:51;99564.25;;;18.66;100.00
41947;BME280;27638;42.184;24.848;2023-05-29T04:34:17;99559.25;;;18.44;100.00
41947;BME280;27638;42.184;24.848;2023-05-29T04:36:42;99559.84;;;18.46;100.00
41947;BME280;27638;42.184;24.848;2023-05-29T04:39:09;99560.22;;;18.50;100.00
41947;BME280;27638;42.184;24.848;2023-05-29T04:41:34;99562.47;;;18.53;100.00
41947;BME280;27638;42.184;24.848;2023-05-29T04:44:00;99562.03;;;18.56;100.00
41947;BME280;27638;42.184;24.848;2023-05-29T04:46:26;99564.34;;;18.52;100.00
41947;BME280;27638;42.184;24.848;2023-05-29T04:48:52;99569.88;;;18.58;100.00
41947;BME280;27638;42.184;24.848;2023-05-29T04:51:21;99573.41;;;18.51;100.00
41947;BME280;27638;42.184;24.848;2023-05-29T04:53:48;99571.56;;;18.52;100.00
41947;BME280;27638;42.184;24.848;2023-05-29T04:56:14;99570.84;;;18.38;100.00
41947;BME280;27638;42.184;24.848;2023-05-29T04:58:40;99572.47;;;18.39;100.00
41947;BME280;27638;42.184;24.848;2023-05-29T05:01:06;99580.69;;;18.13;100.00
41947;BME280;27638;42.184;24.848;2023-05-29T05:03:33;99579.00;;;18.18;100.00
41947;BME280;27638;42.184;24.848;2023-05-29T05:06:02;99584.22;;;18.07;100.00
41947;BME280;27638;42.184;24.848;2023-05-29T05:08:28;99581.56;;;18.00;100.00
41947;BME280;27638;42.184;24.848;2023-05-29T05:10:55;99580.72;;;18.06;100.00
41947;BME280;27638;42.184;24.848;2023-05-29T05:13:20;99575.72;;;18.16;100.00
41947;BME280;27638;42.184;24.848;2023-05-29T05:15:46;99578.09;;;17.93;100.00
41947;BME280;27638;42.184;24.848;2023-05-29T05:18:11;99579.34;;;17.91;100.00
41947;BME280;27638;42.184;24.848;2023-05-29T05:20:37;99586.16;;;17.93;100.00
41947;BME280;27638;42.184;24.848;2023-05-29T05:23:02;99589.59;;;18.00;100.00
41947;BME280;27638;42.184;24.848;2023-05-29T05:25:27;99589.19;;;18.03;100.00
41947;BME280;27638;42.184;24.848;2023-05-29T05:27:54;99601.34;;;18.06;100.00
41947;BME280;27638;42.184;24.848;2023-05-29T05:30:20;99605.03;;;18.05;100.00
41947;BME280;27638;42.184;24.848;2023-05-29T05:32:45;99604.84;;;18.06;100.00
41947;BME280;27638;42.184;24.848;2023-05-29T05:35:11;99612.84;;;18.13;100.00
41947;BME280;27638;42.184;24.848;2023-05-29T05:37:37;99608.69;;;18.17;100.00
41947;BME280;27638;42.184;24.848;2023-05-29T05:40:03;99604.25;;;18.36;100.00
41947;BME280;27638;42.184;24.848;2023-05-29T05:42:31;99606.88;;;18.42;100.00
41947;BME280;27638;42.184;24.848;2023-05-29T05:44:57;99606.66;;;18.44;100.00
41947;BME280;27638;42.184;24.848;2023-05-29T05:47:22;99604.44;;;18.41;100.00
41947;BME280;27638;42.184;24.848;2023-05-29T05:49:48;99606.97;;;18.61;100.00
41947;BME280;27638;42.184;24.848;2023-05-29T05:52:15;99600.16;;;18.65;100.00
41947;BME280;27638;42.184;24.848;2023-05-29T05:54:41;99600.97;;;18.65;100.00
41947;BME280;27638;42.184;24.848;2023-05-29T05:57:07;99595.78;;;18.70;100.00
41947;BME280;27638;42.184;24.848;2023-05-29T05:59:32;99597.56;;;18.83;100.00
41947;BME280;27638;42.184;24.848;2023-05-29T06:01:58;99597.31;;;18.91;100.00
41947;BME280;27638;42.184;24.848;2023-05-29T06:04:23;99595.00;;;18.95;100.00
41947;BME280;27638;42.184;24.848;2023-05-29T06:06:49;99600.38;;;18.95;100.00
41947;BME280;27638;42.184;24.848;2023-05-29T06:09:14;99599.75;;;18.93;100.00
41947;BME280;27638;42.184;24.848;2023-05-29T06:11:39;99601.56;;;18.99;100.00
41947;BME280;27638;42.184;24.848;2023-05-29T06:14:05;99602.00;;;18.96;100.00
41947;BME280;27638;42.184;24.848;2023-05-29T06:16:31;99606.50;;;19.02;100.00
41947;BME280;27638;42.184;24.848;2023-05-29T06:18:56;99608.19;;;18.96;100.00
41947;BME280;27638;42.184;24.848;2023-05-29T06:21:22;99607.81;;;18.93;100.00
41947;BME280;27638;42.184;24.848;2023-05-29T06:23:48;99609.72;;;18.86;100.00
41947;BME280;27638;42.184;24.848;2023-05-29T06:26:14;99616.19;;;18.78;100.00
41947;BME280;27638;42.184;24.848;2023-05-29T06:28:41;99622.66;;;18.95;100.00
41947;BME280;27638;42.184;24.848;2023-05-29T06:31:06;99615.84;;;18.93;100.00
41947;BME280;27638;42.184;24.848;2023-05-29T06:33:32;99621.44;;;18.91;100.00
41947;BME280;27638;42.184;24.848;2023-05-29T06:35:57;99623.41;;;19.02;100.00
41947;BME280;27638;42.184;24.848;2023-05-29T06:38:23;99619.34;;;19.18;100.00
41947;BME280;27638;42.184;24.848;2023-05-29T06:40:48;99613.69;;;19.26;100.00
41947;BME280;27638;42.184;24.848;2023-05-29T06:43:13;99614.13;;;19.23;100.00
41947;BME280;27638;42.184;24.848;2023-05-29T06:45:39;99613.56;;;19.39;100.00
41947;BME280;27638;42.184;24.848;2023-05-29T06:48:06;99616.75;;;19.55;100.00
41947;BME280;27638;42.184;24.848;2023-05-29T06:50:31;99616.13;;;19.53;100.00
41947;BME280;27638;42.184;24.848;2023-05-29T06:52:57;99612.13;;;19.62;100.00
41947;BME280;27638;42.184;24.848;2023-05-29T06:55:22;99615.41;;;19.64;100.00
41947;BME280;27638;42.184;24.848;2023-05-29T06:57:48;99615.53;;;19.69;100.00
41947;BME280;27638;42.184;24.848;2023-05-29T07:00:14;99617.72;;;19.79;100.00
41947;BME280;27638;42.184;24.848;2023-05-29T07:02:40;99609.69;;;19.79;100.00
41947;BME280;27638;42.184;24.848;2023-05-29T07:05:06;99612.59;;;19.77;100.00
41947;BME280;27638;42.184;24.848;2023-05-29T07:07:32;99610.94;;;19.94;100.00
41947;BME280;27638;42.184;24.848;2023-05-29T07:09:57;99622.78;;;20.05;100.00
41947;BME280;27638;42.184;24.848;2023-05-29T07:12:23;99615.22;;;20.14;100.00
41947;BME280;27638;42.184;24.848;2023-05-29T07:14:48;99619.19;;;20.11;100.00
41947;BME280;27638;42.184;24.848;2023-05-29T07:17:14;99619.97;;;20.30;100.00
41947;BME280;27638;42.184;24.848;2023-05-29T07:19:40;99613.69;;;20.36;100.00
41947;BME280;27638;42.184;24.848;2023-05-29T07:22:06;99616.00;;;20.32;100.00
41947;BME280;27638;42.184;24.848;2023-05-29T07:24:32;99618.81;;;20.37;100.00
41947;BME280;27638;42.184;24.848;2023-05-29T07:26:57;99619.16;;;20.29;100.00
41947;BME280;27638;42.184;24.848;2023-05-29T07:29:24;99618.09;;;20.30;100.00
41947;BME280;27638;42.184;24.848;2023-05-29T07:31:51;99617.06;;;20.31;100.00
41947;BME280;27638;42.184;24.848;2023-05-29T07:34:17;99613.84;;;20.23;100.00
41947;BME280;27638;42.184;24.848;2023-05-29T07:39:26;99622.44;;;20.31;100.00
41947;BME280;27638;42.184;24.848;2023-05-29T07:41:52;99620.34;;;20.33;100.00
41947;BME280;27638;42.184;24.848;2023-05-29T07:44:17;99629.22;;;20.34;100.00
41947;BME280;27638;42.184;24.848;2023-05-29T07:46:43;99621.09;;;20.40;100.00
41947;BME280;27638;42.184;24.848;2023-05-29T07:49:09;99627.78;;;20.50;100.00
41947;BME280;27638;42.184;24.848;2023-05-29T07:51:34;99619.84;;;20.55;100.00
41947;BME280;27638;42.184;24.848;2023-05-29T07:54:00;99623.63;;;20.65;100.00
41947;BME280;27638;42.184;24.848;2023-05-29T07:56:25;99611.56;;;20.68;100.00
41947;BME280;27638;42.184;24.848;2023-05-29T07:58:51;99621.19;;;20.76;100.00
41947;BME280;27638;42.184;24.848;2023-05-29T08:01:18;99629.47;;;20.74;100.00
41947;BME280;27638;42.184;24.848;2023-05-29T08:03:44;99630.53;;;20.73;100.00
41947;BME280;27638;42.184;24.848;2023-05-29T08:06:10;99628.47;;;20.87;100.00
41947;BME280;27638;42.184;24.848;2023-05-29T08:08:35;99629.53;;;20.97;100.00
41947;BME280;27638;42.184;24.848;2023-05-29T08:11:01;99623.00;;;21.05;100.00
41947;BME280;27638;42.184;24.848;2023-05-29T08:13:26;99626.41;;;21.12;100.00
41947;BME280;27638;42.184;24.848;2023-05-29T08:15:52;99625.47;;;21.18;100.00
41947;BME280;27638;42.184;24.848;2023-05-29T08:18:18;99622.19;;;21.04;100.00
41947;BME280;27638;42.184;24.848;2023-05-29T08:20:43;99621.59;;;21.14;100.00
41947;BME280;27638;42.184;24.848;2023-05-29T08:23:10;99623.84;;;21.29;100.00
41947;BME280;27638;42.184;24.848;2023-05-29T08:25:35;99620.56;;;21.39;100.00
41947;BME280;27638;42.184;24.848;2023-05-29T08:28:01;99621.16;;;21.52;100.00
41947;BME280;27638;42.184;24.848;2023-05-29T08:30:26;99616.44;;;21.59;100.00
41947;BME280;27638;42.184;24.848;2023-05-29T08:32:52;99613.97;;;21.70;99.70
41947;BME280;27638;42.184;24.848;2023-05-29T08:35:17;99616.41;;;21.83;98.27
41947;BME280;27638;42.184;24.848;2023-05-29T08:37:43;99611.63;;;21.85;98.36
41947;BME280;27638;42.184;24.848;2023-05-29T08:40:09;99612.19;;;21.87;98.86
41947;BME280;27638;42.184;24.848;2023-05-29T08:42:59;99606.22;;;21.85;97.90
41947;BME280;27638;42.184;24.848;2023-05-29T08:45:28;99612.06;;;21.82;97.87
41947;BME280;27638;42.184;24.848;2023-05-29T08:47:54;99603.97;;;21.82;97.27
41947;BME280;27638;42.184;24.848;2023-05-29T08:50:21;99608.06;;;21.84;96.29
41947;BME280;27638;42.184;24.848;2023-05-29T08:52:47;99603.41;;;21.91;97.28
41947;BME280;27638;42.184;24.848;2023-05-29T08:55:13;99600.09;;;22.01;96.76
41947;BME280;27638;42.184;24.848;2023-05-29T08:57:39;99598.91;;;22.09;93.53
41947;BME280;27638;42.184;24.848;2023-05-29T09:00:05;99580.94;;;22.14;92.66
41947;BME280;27638;42.184;24.848;2023-05-29T09:02:41;99597.84;;;22.38;92.83
41947;BME280;27638;42.184;24.848;2023-05-29T09:05:07;99599.63;;;22.33;90.61
41947;BME280;27638;42.184;24.848;2023-05-29T09:07:34;99594.41;;;22.43;88.67
41947;BME280;27638;42.184;24.848;2023-05-29T09:09:59;99596.22;;;22.54;89.43
41947;BME280;27638;42.184;24.848;2023-05-29T09:12:25;99601.47;;;22.60;87.70
41947;BME280;27638;42.184;24.848;2023-05-29T09:14:51;99607.94;;;22.59;87.48
41947;BME280;27638;42.184;24.848;2023-05-29T09:17:17;99600.91;;;22.58;86.27
41947;BME280;27638;42.184;24.848;2023-05-29T09:19:42;99600.97;;;22.47;86.31
41947;BME280;27638;42.184;24.848;2023-05-29T09:22:13;99599.31;;;22.46;90.46
41947;BME280;27638;42.184;24.848;2023-05-29T09:24:43;99606.34;;;22.47;86.80
41947;BME280;27638;42.184;24.848;2023-05-29T09:27:11;99587.06;;;22.38;85.35
41947;BME280;27638;42.184;24.848;2023-05-29T09:29:44;99595.22;;;22.43;86.17
41947;BME280;27638;42.184;24.848;2023-05-29T09:32:13;99606.03;;;22.43;85.73
41947;BME280;27638;42.184;24.848;2023-05-29T09:34:39;99595.09;;;22.50;85.90
41947;BME280;27638;42.184;24.848;2023-05-29T09:37:06;99600.00;;;22.53;85.97
41947;BME280;27638;42.184;24.848;2023-05-29T09:42:07;99589.16;;;22.36;83.89
41947;BME280;27638;42.184;24.848;2023-05-29T09:44:32;99586.53;;;22.24;83.94
41947;BME280;27638;42.184;24.848;2023-05-29T09:46:59;99582.13;;;22.35;86.58
41947;BME280;27638;42.184;24.848;2023-05-29T09:49:25;99588.03;;;22.32;86.19
41947;BME280;27638;42.184;24.848;2023-05-29T09:51:53;99574.22;;;22.45;83.98
41947;BME280;27638;42.184;24.848;2023-05-29T09:54:19;99557.63;;;22.53;84.98
41947;BME280;27638;42.184;24.848;2023-05-29T09:56:45;99577.34;;;22.71;81.78
41947;BME280;27638;42.184;24.848;2023-05-29T09:59:12;99571.91;;;22.82;82.00
41947;BME280;27638;42.184;24.848;2023-05-29T10:01:41;99573.16;;;22.91;82.26
41947;BME280;27638;42.184;24.848;2023-05-29T10:04:10;99574.63;;;22.99;82.15
41947;BME280;27638;42.184;24.848;2023-05-29T10:06:37;99561.03;;;23.11;83.34
41947;BME280;27638;42.184;24.848;2023-05-29T10:09:06;99558.47;;;23.21;83.77
41947;BME280;27638;42.184;24.848;2023-05-29T10:11:34;99555.84;;;23.26;82.29
41947;BME280;27638;42.184;24.848;2023-05-29T10:14:02;99556.47;;;23.33;82.33
41947;BME280;27638;42.184;24.848;2023-05-29T10:16:28;99551.94;;;23.39;82.12
41947;BME280;27638;42.184;24.848;2023-05-29T10:18:55;99549.63;;;23.47;81.88
41947;BME280;27638;42.184;24.848;2023-05-29T10:21:21;99552.50;;;23.58;81.87
41947;BME280;27638;42.184;24.848;2023-05-29T10:23:49;99552.13;;;23.54;80.40
41947;BME280;27638;42.184;24.848;2023-05-29T10:26:22;99537.69;;;23.43;78.95
41947;BME280;27638;42.184;24.848;2023-05-29T10:34:39;99528.94;;;23.36;84.86
41947;BME280;27638;42.184;24.848;2023-05-29T10:37:09;99529.88;;;23.25;83.20
41947;BME280;27638;42.184;24.848;2023-05-29T10:39:41;99529.75;;;23.15;81.30
41947;BME280;27638;42.184;24.848;2023-05-29T10:42:47;99527.25;;;23.30;81.50
41947;BME280;27638;42.184;24.848;2023-05-29T10:50:45;99517.19;;;23.47;85.22
41947;BME280;27638;42.184;24.848;2023-05-29T10:53:16;99527.91;;;23.59;86.18
41947;BME280;27638;42.184;24.848;2023-05-29T10:55:42;99532.00;;;23.62;83.01
41947;BME280;27638;42.184;24.848;2023-05-29T10:58:22;99531.94;;;23.56;81.01
41947;BME280;27638;42.184;24.848;2023-05-29T11:00:51;99532.75;;;23.57;81.21
41947;BME280;27638;42.184;24.848;2023-05-29T11:03:23;99529.34;;;23.67;80.55
41947;BME280;27638;42.184;24.848;2023-05-29T11:06:03;99527.78;;;23.71;77.09
41947;BME280;27638;42.184;24.848;2023-05-29T11:08:42;99524.38;;;23.80;79.47
41947;BME280;27638;42.184;24.848;2023-05-29T11:11:12;99522.22;;;23.82;79.39
41947;BME280;27638;42.184;24.848;2023-05-29T11:13:38;99522.28;;;23.87;75.06
41947;BME280;27638;42.184;24.848;2023-05-29T11:16:12;99517.78;;;23.93;75.45
41947;BME280;27638;42.184;24.848;2023-05-29T11:18:44;99506.75;;;24.00;75.28
41947;BME280;27638;42.184;24.848;2023-05-29T11:24:21;99509.59;;;24.15;77.72
41947;BME280;27638;42.184;24.848;2023-05-29T11:26:46;99495.16;;;24.04;76.82
41947;BME280;27638;42.184;24.848;2023-05-29T11:29:12;99504.66;;;24.07;78.05
41947;BME280;27638;42.184;24.848;2023-05-29T11:31:39;99501.78;;;23.92;77.90
41947;BME280;27638;42.184;24.848;2023-05-29T11:34:09;99499.50;;;24.05;80.24
41947;BME280;27638;42.184;24.848;2023-05-29T11:36:36;99500.28;;;24.01;79.39
41947;BME280;27638;42.184;24.848;2023-05-29T11:39:03;99501.13;;;24.06;78.69
41947;BME280;27638;42.184;24.848;2023-05-29T11:41:29;99502.81;;;24.12;79.09
41947;BME280;27638;42.184;24.848;2023-05-29T11:44:01;99498.78;;;24.15;81.20
41947;BME280;27638;42.184;24.848;2023-05-29T11:46:31;99500.06;;;24.07;77.07
41947;BME280;27638;42.184;24.848;2023-05-29T11:48:58;99483.50;;;23.99;75.94
41947;BME280;27638;42.184;24.848;2023-05-29T11:51:24;99482.47;;;24.05;76.55
41947;BME280;27638;42.184;24.848;2023-05-29T11:53:50;99477.88;;;24.05;79.28
41947;BME280;27638;42.184;24.848;2023-05-29T11:56:18;99464.44;;;24.15;76.00
41947;BME280;27638;42.184;24.848;2023-05-29T11:58:44;99470.97;;;24.19;75.96
41947;BME280;27638;42.184;24.848;2023-05-29T12:01:10;99473.56;;;24.09;75.38
41947;BME280;27638;42.184;24.848;2023-05-29T12:06:04;99471.72;;;24.15;75.40
41947;BME280;27638;42.184;24.848;2023-05-29T12:08:31;99475.03;;;24.22;73.67
41947;BME280;27638;42.184;24.848;2023-05-29T12:10:57;99473.09;;;24.17;71.68
41947;BME280;27638;42.184;24.848;2023-05-29T12:13:22;99475.47;;;24.09;71.05
41947;BME280;27638;42.184;24.848;2023-05-29T12:15:53;99469.84;;;24.15;69.65
41947;BME280;27638;42.184;24.848;2023-05-29T12:18:20;99473.94;;;24.18;69.84
41947;BME280;27638;42.184;24.848;2023-05-29T12:20:45;99477.03;;;24.32;69.42
41947;BME280;27638;42.184;24.848;2023-05-29T12:23:11;99475.41;;;24.31;70.42
41947;BME280;27638;42.184;24.848;2023-05-29T12:25:37;99478.31;;;24.24;70.47
41947;BME280;27638;42.184;24.848;2023-05-29T12:28:03;99472.03;;;24.18;69.96
41947;BME280;27638;42.184;24.848;2023-05-29T12:30:28;99471.19;;;24.13;70.58
41947;BME280;27638;42.184;24.848;2023-05-29T12:32:54;99471.38;;;24.06;71.14
41947;BME280;27638;42.184;24.848;2023-05-29T12:37:52;99473.63;;;24.14;71.28
41947;BME280;27638;42.184;24.848;2023-05-29T12:40:26;99468.78;;;24.16;70.81
41947;BME280;27638;42.184;24.848;2023-05-29T12:43:03;99467.47;;;24.24;72.04
41947;BME280;27638;42.184;24.848;2023-05-29T12:45:30;99469.81;;;24.10;73.42
41947;BME280;27638;42.184;24.848;2023-05-29T12:47:58;99467.09;;;24.10;71.52
41947;BME280;27638;42.184;24.848;2023-05-29T12:50:28;99461.16;;;24.13;70.93
41947;BME280;27638;42.184;24.848;2023-05-29T12:55:20;99449.03;;;24.16;71.17
41947;BME280;27638;42.184;24.848;2023-05-29T12:57:46;99447.94;;;24.17;71.98
41947;BME280;27638;42.184;24.848;2023-05-29T13:00:12;99452.31;;;24.23;71.33
41947;BME280;27638;42.184;24.848;2023-05-29T13:02:38;99450.69;;;24.22;73.92
41947;BME280;27638;42.184;24.848;2023-05-29T13:05:04;99442.88;;;24.26;72.63
41947;BME280;27638;42.184;24.848;2023-05-29T13:07:31;99445.59;;;24.26;73.17
41947;BME280;27638;42.184;24.848;2023-05-29T13:09:57;99432.78;;;24.16;72.70
41947;BME280;27638;42.184;24.848;2023-05-29T13:12:22;99440.38;;;24.19;73.10
41947;BME280;27638;42.184;24.848;2023-05-29T13:14:47;99440.59;;;24.12;71.66
41947;BME280;27638;42.184;24.848;2023-05-29T13:17:13;99450.06;;;24.10;72.16